M I D A S
Marine Information and Data Acquisition System
Tripno 172 of the Zeeleeuw from 2001-11-05 07:02:34 to 2001-11-08 17:00:00
Back to CruiseResearch ActivitiesStationsMapUnderway DataData graphs

EquipmentUnitsComment
TimeDGPSUTC
LatitudeDGPSDM.mWGS84
LongitudeDGPSDM.mWGS84
HeadingGyrodeg 
SOGDGPSknotsSpeed over ground
COGDGPSdegCourse over ground
DepthEcho soundermeters200 kHz
Missing or incorrect values are displayed as -999
Navigation data collected by the RV Zeeleeuw from 2001-11-05 07:02:34 to 2001-11-08 17:00:00
                                                                                    Next 1000 lines
Time Latitude Longitude Heading SOG COG Depth
2001-11-05 07:02:44 51°13.688 2°55.906     182.1 -999
2001-11-05 07:02:49 51°13.688 2°55.906 0.2   182.2 -999
2001-11-05 07:02:54 51°13.688 2°55.906 0.3   148.2 -999
2001-11-05 07:02:59 51°13.688 2°55.906 0.2   91.1 -999
2001-11-05 07:03:05 51°13.688 2°55.906     69.9 -999
2001-11-05 07:03:09 51°13.688 2°55.906 359.8   280.5 -999
2001-11-05 07:03:15 51°13.688 2°55.907 359.8   232.5 -999
2001-11-05 07:03:19 51°13.688 2°55.907     238 -999
2001-11-05 07:03:24 51°13.688 2°55.907     24 -999
2001-11-05 07:03:29 51°13.688 2°55.907     43.5 -999
2001-11-05 07:03:35 51°13.688 2°55.907 359.8   68.1 -999
2001-11-05 07:03:39 51°13.688 2°55.907     123.4 -999
2001-11-05 07:03:45 51°13.688 2°55.908     30.4 -999
2001-11-05 07:03:49 51°13.688 2°55.908 359.8   14.6 -999
2001-11-05 07:03:55 51°13.688 2°55.908 359.8   36.2 -999
2001-11-05 07:03:59 51°13.688 2°55.908 359.8   45.7 -999
2001-11-05 07:04:05 51°13.688 2°55.908 359.8   28.8 -999
2001-11-05 07:04:09 51°13.688 2°55.908 359.8   300.3 -999
2001-11-05 07:04:15 51°13.689 2°55.907     260.7 -999
2001-11-05 07:04:19 51°13.689 2°55.907 359.8   248.5 -999
2001-11-05 07:04:25 51°13.689 2°55.907 359.8   202.9 -999
2001-11-05 07:04:29 51°13.689 2°55.908 359.8   173.2 -999
2001-11-05 07:04:35 51°13.689 2°55.908 359.8   86.4 -999
2001-11-05 07:04:39 51°13.689 2°55.908 359.8   66.4 -999
2001-11-05 07:04:45 51°13.689 2°55.908 359.8   54.7 -999
2001-11-05 07:04:49 51°13.689 2°55.908 359.8   48.4 -999
2001-11-05 07:04:55 51°13.689 2°55.908 359.7   53.5 -999
2001-11-05 07:05:00 51°13.689 2°55.907 359.7   62.7 -999
2001-11-05 07:05:05 51°13.689 2°55.907 359.7   81.6 -999
2001-11-05 07:05:10 51°13.689 2°55.907 359.5   52.9 -999
2001-11-05 07:05:15 51°13.689 2°55.907 359.5   46.8 -999
2001-11-05 07:05:20 51°13.69 2°55.907 359.3   6.8 -999
2001-11-05 07:05:25 51°13.69 2°55.907 359.3   343 -999
2001-11-05 07:05:30 51°13.69 2°55.907 359.3   358.6 -999
2001-11-05 07:05:35 51°13.69 2°55.907 359.3   355.5 -999
2001-11-05 07:05:40 51°13.69 2°55.907 359.3   300.8 -999
2001-11-05 07:05:45 51°13.69 2°55.907 359.3   235.3 -999
2001-11-05 07:05:50 51°13.69 2°55.907 359.3   62.2 -999
2001-11-05 07:05:55 51°13.69 2°55.907 359.3   276.4 -999
2001-11-05 07:06:00 51°13.69 2°55.907 359.3   239.8 -999
2001-11-05 07:06:05 51°13.69 2°55.907 359.3   188.1 -999
2001-11-05 07:06:10 51°13.69 2°55.907 359.5   111.3 -999
2001-11-05 07:06:15 51°13.69 2°55.907 359.7   147.2 -999
2001-11-05 07:06:20 51°13.69 2°55.907 359.8   172.5 -999
2001-11-05 07:06:25 51°13.69 2°55.907 359.8   140.7 -999
2001-11-05 07:06:30 51°13.689 2°55.907 359.8   106.8 -999
2001-11-05 07:06:35 51°13.689 2°55.906 359.8   208.8 -999
2001-11-05 07:06:40 51°13.689 2°55.906     296.5 -999
2001-11-05 07:06:45 51°13.689 2°55.906     8 -999
2001-11-05 07:06:50 51°13.689 2°55.906 359.8   25.5 -999
2001-11-05 07:06:55 51°13.689 2°55.906 359.8   40.5 -999
2001-11-05 07:07:00 51°13.689 2°55.906     33.8 -999
2001-11-05 07:07:05 51°13.689 2°55.906 359.8   7.5 -999
2001-11-05 07:07:10 51°13.689 2°55.906     247.6 -999
2001-11-05 07:07:15 51°13.689 2°55.906     222.9 -999
2001-11-05 07:07:20 51°13.689 2°55.906     204.2 -999
2001-11-05 07:07:25 51°13.689 2°55.906 359.8   172.3 -999
2001-11-05 07:07:30 51°13.689 2°55.906     160.2 -999
2001-11-05 07:07:35 51°13.689 2°55.906     63.9 -999
2001-11-05 07:07:40 51°13.689 2°55.906     45.6 -999
2001-11-05 07:07:45 51°13.689 2°55.906 359.8   19.7 -999
2001-11-05 07:07:50 51°13.689 2°55.906     267 -999
2001-11-05 07:07:55 51°13.689 2°55.906     222.6 -999
2001-11-05 07:08:00 51°13.689 2°55.906     190 -999
2001-11-05 07:08:05 51°13.689 2°55.906     53.3 -999
2001-11-05 07:08:10 51°13.689 2°55.906 359.8   28.5 -999
2001-11-05 07:08:15 51°13.689 2°55.906     41.1 -999
2001-11-05 07:08:20 51°13.689 2°55.906     39.7 -999
2001-11-05 07:08:25 51°13.689 2°55.906     57.2 -999
2001-11-05 07:08:30 51°13.689 2°55.906     92 -999
2001-11-05 07:08:35 51°13.689 2°55.906 359.8   230 -999
2001-11-05 07:08:40 51°13.689 2°55.906 359.8   314 -999
2001-11-05 07:08:45 51°13.689 2°55.906 359.8   56.7 -999
2001-11-05 07:08:50 51°13.689 2°55.906     7.1 -999
2001-11-05 07:08:55 51°13.689 2°55.906     311.2 -999
2001-11-05 07:09:00 51°13.689 2°55.906     324.3 -999
2001-11-05 07:09:05 51°13.689 2°55.906     321.7 -999
2001-11-05 07:09:10 51°13.689 2°55.906     349.1 -999
2001-11-05 07:09:15 51°13.689 2°55.906     48.7 -999
2001-11-05 07:09:20 51°13.689 2°55.906     57.8 -999
2001-11-05 07:09:25 51°13.689 2°55.906     62.9 -999
2001-11-05 07:09:30 51°13.689 2°55.906     44.6 -999
2001-11-05 07:09:35 51°13.689 2°55.906     45.5 -999
2001-11-05 07:09:40 51°13.689 2°55.906     64.7 -999
2001-11-05 07:09:45 51°13.689 2°55.906     61.2 -999
2001-11-05 07:09:50 51°13.689 2°55.906     39.5 -999
2001-11-05 07:09:55 51°13.689 2°55.906 359.8   47.4 -999
2001-11-05 07:10:00 51°13.689 2°55.906 359.7   54.6 -999
2001-11-05 07:10:05 51°13.689 2°55.906 359.7   265.2 -999
2001-11-05 07:10:10 51°13.689 2°55.906 359.8   252.5 -999
2001-11-05 07:10:15 51°13.689 2°55.906 359.8   287.8 -999
2001-11-05 07:10:20 51°13.689 2°55.906 359.7   9.1 -999
2001-11-05 07:10:25 51°13.689 2°55.906 359.7   15.6 -999
2001-11-05 07:10:30 51°13.689 2°55.906 359.7   6.1 -999
2001-11-05 07:10:35 51°13.689 2°55.906 359.7   23 -999
2001-11-05 07:10:40 51°13.689 2°55.906 359.5   2.7 -999
2001-11-05 07:10:45 51°13.689 2°55.906 359.5   20.4 -999
2001-11-05 07:10:50 51°13.689 2°55.906 359.5   22.5 -999
2001-11-05 07:10:55 51°13.689 2°55.906 359.7   138.4 -999
2001-11-05 07:11:00 51°13.689 2°55.906 359.5   131.2 -999
2001-11-05 07:11:05 51°13.689 2°55.905 359.7   153 -999
2001-11-05 07:11:10 51°13.689 2°55.905 359.8   14.2 -999
2001-11-05 07:11:15 51°13.689 2°55.905 359.8   341 -999
2001-11-05 07:11:20 51°13.689 2°55.905 359.8   276 -999
2001-11-05 07:11:25 51°13.689 2°55.905 359.8   245.9 -999
2001-11-05 07:11:30 51°13.689 2°55.905 359.8   231.5 -999
2001-11-05 07:11:35 51°13.689 2°55.905 359.8   211.7 -999
2001-11-05 07:11:40 51°13.689 2°55.905 359.8   91.1 -999
2001-11-05 07:11:45 51°13.689 2°55.905 359.8   28.1 -999
2001-11-05 07:11:50 51°13.689 2°55.905 359.8   40.6 -999
2001-11-05 07:11:55 51°13.689 2°55.905 359.8   40.5 -999
2001-11-05 07:12:00 51°13.689 2°55.905 359.8   40.7 -999
2001-11-05 07:12:05 51°13.689 2°55.905 359.8   47.7 -999
2001-11-05 07:12:10 51°13.689 2°55.905 359.8   8.1 -999
2001-11-05 07:12:15 51°13.689 2°55.905 359.8   341.8 -999
2001-11-05 07:12:20 51°13.689 2°55.905 359.8   351.7 -999
2001-11-05 07:12:25 51°13.689 2°55.905 359.8   297.8 -999
2001-11-05 07:12:30 51°13.689 2°55.905 359.8   345.2 -999
2001-11-05 07:12:35 51°13.689 2°55.905 359.7   39.2 -999
2001-11-05 07:12:40 51°13.689 2°55.905 359.7   27.1 -999
2001-11-05 07:12:45 51°13.69 2°55.905 359.7   10.2 -999
2001-11-05 07:12:50 51°13.69 2°55.905 359.7   15.2 -999
2001-11-05 07:12:55 51°13.69 2°55.905 359.5   16.3 -999
2001-11-05 07:13:00 51°13.689 2°55.905 359.5   16.7 -999
2001-11-05 07:13:05 51°13.689 2°55.905 359.5   351.7 -999
2001-11-05 07:13:10 51°13.689 2°55.905 359.7   327.5 -999
2001-11-05 07:13:15 51°13.689 2°55.905 359.5   322.4 -999
2001-11-05 07:13:20 51°13.689 2°55.905 359.5   339.9 -999
2001-11-05 07:13:25 51°13.689 2°55.905 359.3   47.2 -999
2001-11-05 07:13:30 51°13.689 2°55.905 359.3   45.2 -999
2001-11-05 07:13:35 51°13.689 2°55.905 359.3   4.8 -999
2001-11-05 07:13:40 51°13.689 2°55.905 359.5   6.9 -999
2001-11-05 07:13:45 51°13.689 2°55.905 359.5   240.3 -999
2001-11-05 07:13:50 51°13.689 2°55.905 359.5   102 -999
2001-11-05 07:13:55 51°13.689 2°55.905 359.7   76.5 -999
2001-11-05 07:14:00 51°13.689 2°55.905 359.7   57.9 -999
2001-11-05 07:14:05 51°13.689 2°55.905 359.8   44.8 -999
2001-11-05 07:14:10 51°13.689 2°55.905 359.7   38.3 -999
2001-11-05 07:14:15 51°13.689 2°55.905 359.8   45.2 -999
2001-11-05 07:14:20 51°13.689 2°55.905 359.8   45.6 -999
2001-11-05 07:14:25 51°13.689 2°55.905 359.8   19 -999
2001-11-05 07:14:30 51°13.689 2°55.905 359.8   7 -999
2001-11-05 07:14:35 51°13.689 2°55.905 359.8   303.3 -999
2001-11-05 07:14:40 51°13.689 2°55.905     44 -999
2001-11-05 07:14:45 51°13.689 2°55.905 359.8   42.5 -999
2001-11-05 07:14:50 51°13.689 2°55.905 359.8   37.5 -999
2001-11-05 07:14:55 51°13.689 2°55.905 359.8   40.2 -999
2001-11-05 07:15:00 51°13.689 2°55.905 359.8   299.1 -999
2001-11-05 07:15:05 51°13.689 2°55.905 359.8   299.2 -999
2001-11-05 07:15:10 51°13.689 2°55.905 359.8   74.8 -999
2001-11-05 07:15:15 51°13.689 2°55.905 359.8   74.7 -999
2001-11-05 07:15:20 51°13.689 2°55.905 359.8   86.3 -999
2001-11-05 07:15:25 51°13.689 2°55.905 359.8   35.5 -999
2001-11-05 07:15:30 51°13.689 2°55.905 359.7   22 -999
2001-11-05 07:15:35 51°13.689 2°55.905 359.7   33.2 -999
2001-11-05 07:15:40 51°13.689 2°55.905 359.7   42.1 -999
2001-11-05 07:15:45 51°13.689 2°55.905 359.5   23.1 -999
2001-11-05 07:15:50 51°13.689 2°55.905 359.7   5.7 -999
2001-11-05 07:15:55 51°13.689 2°55.905 359.5   17.4 -999
2001-11-05 07:16:00 51°13.689 2°55.905 359.7   28.1 -999
2001-11-05 07:16:05 51°13.689 2°55.905 359.7   42.3 -999
2001-11-05 07:16:10 51°13.689 2°55.905 359.7   33.1 -999
2001-11-05 07:16:15 51°13.689 2°55.905 359.7   14.4 -999
2001-11-05 07:16:20 51°13.689 2°55.905 359.7   19.9 -999
2001-11-05 07:16:25 51°13.689 2°55.905 359.8   115.9 -999
2001-11-05 07:16:30 51°13.689 2°55.905 359.8   127.2 -999
2001-11-05 07:16:35 51°13.689 2°55.905 359.8   152.3 -999
2001-11-05 07:16:40 51°13.689 2°55.905 359.8   100.7 -999
2001-11-05 07:16:45 51°13.689 2°55.905 359.8   72.4 -999
2001-11-05 07:16:50 51°13.689 2°55.905 359.8   132.2 -999
2001-11-05 07:16:55 51°13.689 2°55.905 359.8   190.7 -999
2001-11-05 07:17:00 51°13.689 2°55.905 359.8   126.4 -999
2001-11-05 07:17:05 51°13.689 2°55.905     87.5 -999
2001-11-05 07:17:10 51°13.689 2°55.905     62 -999
2001-11-05 07:17:15 51°13.689 2°55.905 359.8   27.6 -999
2001-11-05 07:17:20 51°13.689 2°55.905     0.7 -999
2001-11-05 07:17:25 51°13.689 2°55.905     331.3 -999
2001-11-05 07:17:30 51°13.689 2°55.905 359.8   7.5 -999
2001-11-05 07:17:35 51°13.689 2°55.905     70.4 -999
2001-11-05 07:17:40 51°13.689 2°55.905     65.3 -999
2001-11-05 07:17:45 51°13.689 2°55.905 359.8   63.3 -999
2001-11-05 07:17:50 51°13.689 2°55.905 359.8   17.2 -999
2001-11-05 07:17:55 51°13.689 2°55.905     270.5 -999
2001-11-05 07:18:00 51°13.689 2°55.905     214.9 -999
2001-11-05 07:18:05 51°13.689 2°55.905 359.8   198.7 -999
2001-11-05 07:18:10 51°13.689 2°55.905     50.7 -999
2001-11-05 07:18:15 51°13.689 2°55.905 359.8   63.7 -999
2001-11-05 07:18:20 51°13.689 2°55.905 359.8   354.2 -999
2001-11-05 07:18:25 51°13.689 2°55.905 359.8   30.5 -999
2001-11-05 07:18:30 51°13.689 2°55.905 359.8   25.6 -999
2001-11-05 07:18:35 51°13.689 2°55.905 359.8   21.3 -999
2001-11-05 07:18:40 51°13.689 2°55.905 359.8   41 -999
2001-11-05 07:18:45 51°13.689 2°55.905 359.8   52.7 -999
2001-11-05 07:18:50 51°13.69 2°55.905 359.8   89.5 -999
2001-11-05 07:18:55 51°13.69 2°55.905 359.7   117.8 -999
2001-11-05 07:19:00 51°13.69 2°55.905 359.7   50.5 -999
2001-11-05 07:19:05 51°13.69 2°55.905 359.7   358.6 -999
2001-11-05 07:19:10 51°13.69 2°55.904 359.7   316.2 -999
2001-11-05 07:19:15 51°13.69 2°55.904 359.7   282.2 -999
2001-11-05 07:19:20 51°13.69 2°55.905 359.8   304.7 -999
2001-11-05 07:19:25 51°13.69 2°55.905 359.7   339.2 -999
2001-11-05 07:19:30 51°13.69 2°55.905 359.7   17.4 -999
2001-11-05 07:19:35 51°13.69 2°55.905 359.8   24.9 -999
2001-11-05 07:19:40 51°13.69 2°55.905 359.8   31.9 -999
2001-11-05 07:19:45 51°13.689 2°55.905 359.7   34.7 -999
2001-11-05 07:19:50 51°13.689 2°55.905 359.7   99.5 -999
2001-11-05 07:19:55 51°13.689 2°55.905 359.8   57.4 -999
2001-11-05 07:20:00 51°13.689 2°55.905 359.8   28.5 -999
2001-11-05 07:20:05 51°13.689 2°55.905 359.8   356.5 -999
2001-11-05 07:20:10 51°13.689 2°55.905 359.8   358.1 -999
2001-11-05 07:20:15 51°13.689 2°55.905 359.8   175.5 -999
2001-11-05 07:20:20 51°13.689 2°55.905 359.8   218.4 -999
2001-11-05 07:20:25 51°13.689 2°55.905 359.8   245.5 -999
2001-11-05 07:20:30 51°13.689 2°55.905 359.8   211.9 -999
2001-11-05 07:20:35 51°13.689 2°55.905 359.8   74.3 -999
2001-11-05 07:20:40 51°13.689 2°55.905 359.8   57.1 -999
2001-11-05 07:20:45 51°13.689 2°55.905 359.8   49.2 -999
2001-11-05 07:20:50 51°13.689 2°55.905 359.8   66.1 -999
2001-11-05 07:20:55 51°13.689 2°55.905 359.8   96.8 -999
2001-11-05 07:21:00 51°13.689 2°55.905 359.8   56 -999
2001-11-05 07:21:05 51°13.689 2°55.905 359.7   43.9 -999
2001-11-05 07:21:10 51°13.689 2°55.906 359.7   56.2 -999
2001-11-05 07:21:15 51°13.689 2°55.906 359.7   27.3 -999
2001-11-05 07:21:20 51°13.689 2°55.906 359.5   13.8 -999
2001-11-05 07:21:25 51°13.689 2°55.906 359.7   5.4 -999
2001-11-05 07:21:30 51°13.689 2°55.905 359.7   325.7 -999
2001-11-05 07:21:35 51°13.689 2°55.906 359.5   356.9 -999
2001-11-05 07:21:40 51°13.689 2°55.906 359.5   26.2 -999
2001-11-05 07:21:45 51°13.689 2°55.906 359.5   33.7 -999
2001-11-05 07:21:50 51°13.689 2°55.906 359.3   36.7 -999
2001-11-05 07:21:55 51°13.689 2°55.905 359.3   16.1 -999
2001-11-05 07:22:00 51°13.689 2°55.906 359.5   66.5 -999
2001-11-05 07:22:05 51°13.689 2°55.905 359.5   105 -999
2001-11-05 07:22:10 51°13.689 2°55.905 359.5   260.7 -999
2001-11-05 07:22:15 51°13.689 2°55.905 359.5   279.9 -999
2001-11-05 07:22:20 51°13.689 2°55.905 359.5   254.9 -999
2001-11-05 07:22:25 51°13.689 2°55.905 359.7   233.8 -999
2001-11-05 07:22:30 51°13.689 2°55.905 359.8   220.3 -999
2001-11-05 07:22:35 51°13.689 2°55.905 359.8   234.1 -999
2001-11-05 07:22:40 51°13.689 2°55.905 359.8   250.8 -999
2001-11-05 07:22:45 51°13.689 2°55.905 359.8   341.4 -999
2001-11-05 07:22:50 51°13.689 2°55.905 359.8   347.7 -999
2001-11-05 07:22:55 51°13.689 2°55.905     83.4 -999
2001-11-05 07:23:00 51°13.689 2°55.905 359.8   67.7 -999
2001-11-05 07:23:05 51°13.689 2°55.905 359.8   70.3 -999
2001-11-05 07:23:10 51°13.689 2°55.905     13.9 -999
2001-11-05 07:23:15 51°13.689 2°55.905     3.9 -999
2001-11-05 07:23:20 51°13.689 2°55.905 359.8   56.4 -999
2001-11-05 07:23:25 51°13.689 2°55.905 359.8 0.1 61.1 -999
2001-11-05 07:23:30 51°13.689 2°55.905 359.8   57.4 -999
2001-11-05 07:23:35 51°13.689 2°55.905 359.8   6.9 -999
2001-11-05 07:23:40 51°13.689 2°55.905 359.8   349.7 -999
2001-11-05 07:23:45 51°13.689 2°55.905 359.8   42.6 -999
2001-11-05 07:23:50 51°13.689 2°55.905 359.8   340.2 -999
2001-11-05 07:23:55 51°13.689 2°55.905 359.8   343 -999
2001-11-05 07:24:00 51°13.689 2°55.905 359.8   23.3 -999
2001-11-05 07:24:05 51°13.689 2°55.905 359.8   37.4 -999
2001-11-05 07:24:10 51°13.689 2°55.905 359.8   21.5 -999
2001-11-05 07:24:15 51°13.689 2°55.905 359.8   10.5 -999
2001-11-05 07:24:20 51°13.689 2°55.905 359.7   19.7 -999
2001-11-05 07:24:25 51°13.689 2°55.905 359.8   14.8 -999
2001-11-05 07:24:30 51°13.689 2°55.905 359.7   17.2 -999
2001-11-05 07:24:35 51°13.689 2°55.905 359.7   76.4 -999
2001-11-05 07:24:40 51°13.689 2°55.905 359.7   67.1 -999
2001-11-05 07:24:45 51°13.689 2°55.905 359.7   45 -999
2001-11-05 07:24:49 51°13.689 2°55.905 359.7   14 7.4
2001-11-05 07:24:52 51°13.689 2°55.906 359.7   352.5 7.5
2001-11-05 07:24:55 51°13.689 2°55.906 359.7   8.5 7.4
2001-11-05 07:25:00 51°13.689 2°55.906 359.7   43.4 7.4
2001-11-05 07:25:05 51°13.689 2°55.906 359.7   91.4 7.5
2001-11-05 07:25:10 51°13.689 2°55.906 359.7   64.8 7.6
2001-11-05 07:25:15 51°13.689 2°55.906 359.7   53.6 7.6
2001-11-05 07:25:20 51°13.689 2°55.906 359.7   61.3 7.6
2001-11-05 07:25:25 51°13.689 2°55.906 359.7   211.5 7.5
2001-11-05 07:25:30 51°13.689 2°55.906 359.7   216.4 7.5
2001-11-05 07:25:35 51°13.689 2°55.906 359.7   343.7 7.4
2001-11-05 07:25:40 51°13.689 2°55.906 359.7   345.5 7.4
2001-11-05 07:25:45 51°13.689 2°55.906 359.7   326.2 7.5
2001-11-05 07:25:50 51°13.689 2°55.906 359.7   310.3 7.5
2001-11-05 07:25:55 51°13.689 2°55.906 359.7   59.1 7.5
2001-11-05 07:26:00 51°13.689 2°55.906 359.7   57.2 7.5
2001-11-05 07:26:05 51°13.689 2°55.906 359.7   68 7.5
2001-11-05 07:26:10 51°13.689 2°55.906 359.7   25 7.5
2001-11-05 07:26:15 51°13.689 2°55.906 359.7   108.5 7.5
2001-11-05 07:26:20 51°13.689 2°55.906 359.7   106.3 7.5
2001-11-05 07:26:25 51°13.689 2°55.906 359.8   52.6 7.5
2001-11-05 07:26:30 51°13.689 2°55.906 359.7   33 7.5
2001-11-05 07:26:35 51°13.689 2°55.906 359.7   34.8 7.6
2001-11-05 07:26:40 51°13.689 2°55.906 359.7   8.7 7.5
2001-11-05 07:26:45 51°13.689 2°55.906 359.7   212.8 7.5
2001-11-05 07:26:50 51°13.689 2°55.906 359.7   343.4 7.5
2001-11-05 07:26:54 51°13.689 2°55.906 359.7   32.3 7.5
2001-11-05 07:27:00 51°13.689 2°55.906 359.8   19.6 7.5
2001-11-05 07:27:05 51°13.689 2°55.906 359.8   273 7.5
2001-11-05 07:27:10 51°13.689 2°55.906 359.7   20.8 7.5
2001-11-05 07:27:15 51°13.689 2°55.906 359.7   2.6 7.5
2001-11-05 07:27:20 51°13.689 2°55.906 359.8   49.4 7.6
2001-11-05 07:27:25 51°13.689 2°55.906 359.7   42.7 7.5
2001-11-05 07:27:30 51°13.689 2°55.906 359.7   26.9 7.6
2001-11-05 07:27:35 51°13.689 2°55.906 359.7   21.7 7.5
2001-11-05 07:27:40 51°13.689 2°55.906 359.7   8.3 7.5
2001-11-05 07:27:45 51°13.689 2°55.906 359.5   18.1 7.5
2001-11-05 07:27:50 51°13.689 2°55.906 359.5   1.4 7.5
2001-11-05 07:27:54 51°13.689 2°55.906 359.3   325.8 7.5
2001-11-05 07:28:00 51°13.689 2°55.906 359.5   316 7.5
2001-11-05 07:28:05 51°13.689 2°55.906 359.5   249.1 7.4
2001-11-05 07:28:10 51°13.689 2°55.907 359.5   188.4 7.5
2001-11-05 07:28:15 51°13.689 2°55.907 359.7   119 7.4
2001-11-05 07:28:20 51°13.689 2°55.907 359.5   41.1 7.5
2001-11-05 07:28:25 51°13.689 2°55.907 359.5   13.4 7.5
2001-11-05 07:28:30 51°13.689 2°55.907 359.5   9.3 7.5
2001-11-05 07:28:35 51°13.689 2°55.907 359.5   341.7 7.5
2001-11-05 07:28:40 51°13.689 2°55.907 359.5   301.5 7.5
2001-11-05 07:28:45 51°13.689 2°55.907 359.7   285.8 7.5
2001-11-05 07:28:50 51°13.689 2°55.907 359.5   300.8 7.4
2001-11-05 07:28:54 51°13.689 2°55.907 359.7   341.6 7.5
2001-11-05 07:29:00 51°13.689 2°55.907 359.7   58.7 7.5
2001-11-05 07:29:05 51°13.689 2°55.907 359.7   153.8 7.4
2001-11-05 07:29:10 51°13.689 2°55.907 359.7   337.3 7.4
2001-11-05 07:29:15 51°13.689 2°55.907 359.7   305.4 7.3
2001-11-05 07:29:20 51°13.689 2°55.907 359.7   283.6 7.4
2001-11-05 07:29:25 51°13.689 2°55.907 359.7   329.5 7.5
2001-11-05 07:29:30 51°13.689 2°55.907 359.7   68.1 7.5
2001-11-05 07:29:35 51°13.689 2°55.907 359.8   55 7.5
2001-11-05 07:29:40 51°13.689 2°55.907 359.8   53.7 7.5
2001-11-05 07:29:45 51°13.689 2°55.907 359.8   354 7.5
2001-11-05 07:29:50 51°13.689 2°55.907 359.8   194.3 7.4
2001-11-05 07:29:55 51°13.689 2°55.907 359.8   289.7 7.5
2001-11-05 07:30:00 51°13.689 2°55.907 359.8   204.2 7.5
2001-11-05 07:30:05 51°13.689 2°55.907 359.8   183.8 7.5
2001-11-05 07:30:10 51°13.689 2°55.907     223.4 7.6
2001-11-05 07:30:15 51°13.689 2°55.907 359.8   231.2 7.6
2001-11-05 07:30:20 51°13.689 2°55.907 359.8   346.5 7.6
2001-11-05 07:30:25 51°13.689 2°55.907 359.8   17.5 7.5
2001-11-05 07:30:30 51°13.689 2°55.907 359.8   0.2 7.5
2001-11-05 07:30:35 51°13.689 2°55.907 359.8   318.4 7.5
2001-11-05 07:30:40 51°13.689 2°55.907 359.8   19.6 7.5
2001-11-05 07:30:45 51°13.689 2°55.907 359.8   107 7.5
2001-11-05 07:30:50 51°13.689 2°55.907     94.9 7.5
2001-11-05 07:30:55 51°13.689 2°55.907 359.8   96 7.5
2001-11-05 07:31:00 51°13.689 2°55.907 359.8   90.7 7.4
2001-11-05 07:31:05 51°13.689 2°55.907 359.8   27.1 7.5
2001-11-05 07:31:10 51°13.689 2°55.907 359.8   9.4 7.5
2001-11-05 07:31:15 51°13.689 2°55.907 359.7   324.9 7.5
2001-11-05 07:31:20 51°13.689 2°55.907 359.8   94.7 7.5
2001-11-05 07:31:25 51°13.689 2°55.907 359.7   42.6 7.5
2001-11-05 07:31:30 51°13.689 2°55.907 359.7   25.8 7.5
2001-11-05 07:31:35 51°13.689 2°55.907 359.5   42.5 7.5
2001-11-05 07:31:40 51°13.689 2°55.907 359.5   75.3 7.5
2001-11-05 07:31:45 51°13.689 2°55.907 359.5   99 7.5
2001-11-05 07:31:50 51°13.689 2°55.907 359.5   99 7.5
2001-11-05 07:31:55 51°13.689 2°55.907 359.5   301.4 7.5
2001-11-05 07:32:00 51°13.689 2°55.907 359.3   27.1 7.5
2001-11-05 07:32:05 51°13.689 2°55.906 359.5   29.3 7.5
2001-11-05 07:32:10 51°13.689 2°55.906 359.5   26.6 7.5
2001-11-05 07:32:15 51°13.689 2°55.906 359.5   216.7 7.5
2001-11-05 07:32:20 51°13.689 2°55.906 359.5   78.8 7.5
2001-11-05 07:32:25 51°13.689 2°55.906 359.5   56.2 7.4
2001-11-05 07:32:30 51°13.689 2°55.906 359.3   36.3 7.5
2001-11-05 07:32:34 51°13.689 2°55.906 359.5   100.3 7.5
2001-11-05 07:32:40 51°13.689 2°55.906 359.7   146.1 7.5
2001-11-05 07:32:45 51°13.689 2°55.906 359.7   131.8 7.5
2001-11-05 07:32:50 51°13.689 2°55.906 359.7   53.5 7.3
2001-11-05 07:32:55 51°13.689 2°55.906 359.7   24.4 7.2
2001-11-05 07:33:13 51°13.689 2°55.907 359.8   71 7.3
2001-11-05 07:33:18 51°13.689 2°55.907 359.8   72.5 7.3
2001-11-05 07:33:23 51°13.689 2°55.907     94.6 7.5
2001-11-05 07:33:26 51°13.689 2°55.907     64.2 7.5
2001-11-05 07:33:29 51°13.689 2°55.907     45.4 7.4
2001-11-05 07:33:33 51°13.689 2°55.907     28.5 7.4
2001-11-05 07:33:38 51°13.69 2°55.906 359.8   343.5 7.4
2001-11-05 07:33:43 51°13.69 2°55.907 359.8   29.8 7.3
2001-11-05 07:34:08 51°13.69 2°55.906 359.8   321.9 7.4
2001-11-05 07:34:13 51°13.689 2°55.906 359.8   301.4 7.5
2001-11-05 07:34:18 51°13.689 2°55.906     142.3 7.5
2001-11-05 07:34:24 51°13.69 2°55.906     113.1 7.5
2001-11-05 07:34:28 51°13.69 2°55.906     91.2 7.5
2001-11-05 07:34:33 51°13.69 2°55.906     10 7.5
2001-11-05 07:34:38 51°13.69 2°55.906     342.1 7.5
2001-11-05 07:34:43 51°13.69 2°55.906 359.8   130.6 7.5
2001-11-05 07:34:48 51°13.69 2°55.906 359.8   164.2 7.5
2001-11-05 07:34:53 51°13.69 2°55.906     52.3 7.5
2001-11-05 07:34:58 51°13.69 2°55.906 359.8   42.8 7.5
2001-11-05 07:35:03 51°13.689 2°55.906 359.8   346.4 7.5
2001-11-05 07:35:08 51°13.689 2°55.906 359.8   21.5 7.5
2001-11-05 07:35:13 51°13.689 2°55.906 359.8   58 7.5
2001-11-05 07:35:18 51°13.689 2°55.906     86.1 7.5
2001-11-05 07:35:23 51°13.689 2°55.906 359.8   281.8 7.5
2001-11-05 07:35:28 51°13.689 2°55.906     287.2 7.1
2001-11-05 07:35:33 51°13.689 2°55.906 359.8   156.8 7.1
2001-11-05 07:35:38 51°13.689 2°55.906     135.8 7
2001-11-05 07:35:43 51°13.689 2°55.906 359.8   78.3 7
2001-11-05 07:35:48 51°13.689 2°55.906 359.8   62.3 7
2001-11-05 07:35:53 51°13.689 2°55.906     53.5 7.4
2001-11-05 07:35:58 51°13.689 2°55.906     66.2 7.5
2001-11-05 07:36:03 51°13.689 2°55.906 359.8   76.9 7.5
2001-11-05 07:36:08 51°13.689 2°55.906 359.8   77.1 7.5
2001-11-05 07:36:13 51°13.689 2°55.906 359.8   90.7 7.5
2001-11-05 07:36:18 51°13.689 2°55.906 359.7   37.9 7.4
2001-11-05 07:36:23 51°13.689 2°55.906 359.7   353.1 7.4
2001-11-05 07:36:28 51°13.689 2°55.906 359.7   342.9 7.4
2001-11-05 07:36:33 51°13.689 2°55.906 359.7   308.5 7.4
2001-11-05 07:36:38 51°13.689 2°55.906 359.7   306.8 7.4
2001-11-05 07:36:43 51°13.689 2°55.906 359.5   223.2 7.4
2001-11-05 07:36:48 51°13.689 2°55.906 359.7   171.2 7.5
2001-11-05 07:36:53 51°13.689 2°55.906 359.7   24 7.4
2001-11-05 07:36:58 51°13.689 2°55.906 359.7   229.7 7.5
2001-11-05 07:37:03 51°13.689 2°55.906 359.8   214 7.5
2001-11-05 07:37:08 51°13.689 2°55.907 359.8   197.2 7.4
2001-11-05 07:37:13 51°13.689 2°55.906     205.5 7.3
2001-11-05 07:37:18 51°13.689 2°55.906     196.3 7.5
2001-11-05 07:37:23 51°13.689 2°55.906     152.6 7.3
2001-11-05 07:37:28 51°13.689 2°55.906     16.5 7.5
2001-11-05 07:37:33 51°13.689 2°55.906     332.3 7.5
2001-11-05 07:37:38 51°13.689 2°55.906     359.7 7.5
2001-11-05 07:37:42 51°13.689 2°55.907     12.5 7.4
2001-11-05 07:37:48 51°13.689 2°55.907 359.8   46.6 7.5
2001-11-05 07:37:53 51°13.689 2°55.907 359.8   25.1 7.5
2001-11-05 07:37:58 51°13.689 2°55.907     3.2 7.5
2001-11-05 07:38:03 51°13.689 2°55.907     348.4 7.5
2001-11-05 07:38:08 51°13.689 2°55.907 359.8   344.8 7.4
2001-11-05 07:38:13 51°13.689 2°55.907 359.8   6.5 7.5
2001-11-05 07:38:18 51°13.689 2°55.907 359.8   351.8 7.5
2001-11-05 07:38:22 51°13.689 2°55.907 359.8   348.3 7.5
2001-11-05 07:38:28 51°13.689 2°55.906 359.8   323.7 7.5
2001-11-05 07:38:33 51°13.689 2°55.906 359.8   269.7 7.5
2001-11-05 07:38:38 51°13.689 2°55.906     292.6 7.4
2001-11-05 07:38:43 51°13.689 2°55.906 359.8   325.2 7.5
2001-11-05 07:38:48 51°13.689 2°55.906 359.8   326.2 7.5
2001-11-05 07:38:53 51°13.689 2°55.906 359.8   324.7 7.5
2001-11-05 07:38:58 51°13.689 2°55.906     335.7 7.5
2001-11-05 07:39:03 51°13.689 2°55.906 359.8   35.4 7.5
2001-11-05 07:39:08 51°13.689 2°55.906 359.8   83.4 7.4
2001-11-05 07:39:13 51°13.689 2°55.906     85.3 7.5
2001-11-05 07:39:18 51°13.689 2°55.906 359.8   94.8 7.4
2001-11-05 07:39:23 51°13.689 2°55.906 359.8   93.8 7.4
2001-11-05 07:39:28 51°13.689 2°55.906 359.8   90.8 7.5
2001-11-05 07:39:33 51°13.689 2°55.906     144.8 7.4
2001-11-05 07:39:38 51°13.689 2°55.906     130.3 7.5
2001-11-05 07:39:43 51°13.689 2°55.906 359.8   185.2 7.4
2001-11-05 07:39:48 51°13.689 2°55.906 359.8   91.3 7.4
2001-11-05 07:39:53 51°13.689 2°55.906 359.8   328.2 7.4
2001-11-05 07:39:58 51°13.689 2°55.906     348.6 7.4
2001-11-05 07:40:03 51°13.689 2°55.906     23.2 7.3
2001-11-05 07:40:08 51°13.689 2°55.906 359.8   44.2 7.3
2001-11-05 07:40:13 51°13.689 2°55.906 359.7   2.7 7.3
2001-11-05 07:40:18 51°13.689 2°55.906 359.7   341.6 7.3
2001-11-05 07:40:23 51°13.689 2°55.906 359.8   310.3 7.3
2001-11-05 07:40:28 51°13.689 2°55.906 359.8   153.3 7.3
2001-11-05 07:40:33 51°13.689 2°55.906 359.8   129.6 7.3
2001-11-05 07:40:38 51°13.689 2°55.906 359.8   42.6 7.3
2001-11-05 07:40:43 51°13.689 2°55.906 359.7   352.3 7.3
2001-11-05 07:40:48 51°13.689 2°55.906 359.7   339.3 7.3
2001-11-05 07:40:53 51°13.689 2°55.906 359.7   319.6 7.4
2001-11-05 07:40:58 51°13.689 2°55.906 359.7   318.9 7.4
2001-11-05 07:41:03 51°13.689 2°55.906 359.8   306.3 7.4
2001-11-05 07:41:08 51°13.689 2°55.906 359.8   317.6 7.4
2001-11-05 07:41:13 51°13.689 2°55.906 359.8   105.1 7.4
2001-11-05 07:41:18 51°13.689 2°55.905 359.8   13.7 7.4
2001-11-05 07:41:23 51°13.689 2°55.906 359.8   326.7 7.4
2001-11-05 07:41:28 51°13.689 2°55.905     283.8 7.4
2001-11-05 07:41:33 51°13.689 2°55.905     180.4 7.4
2001-11-05 07:41:38 51°13.689 2°55.905     163.4 7.4
2001-11-05 07:41:44 51°13.689 2°55.905     196.8 7.4
2001-11-05 07:41:48 51°13.688 2°55.905 0.2   218.6 7.4
2001-11-05 07:41:53 51°13.688 2°55.905 0.2   31.8 7.4
2001-11-05 07:41:58 51°13.688 2°55.905     48.2 7.4
2001-11-05 07:42:03 51°13.688 2°55.905     344.3 7.4
2001-11-05 07:42:08 51°13.688 2°55.905     336.2 7.4
2001-11-05 07:42:13 51°13.688 2°55.905     90.5 7.4
2001-11-05 07:42:18 51°13.688 2°55.905     77.1 7.4
2001-11-05 07:42:23 51°13.688 2°55.905     38.7 7.4
2001-11-05 07:42:29 51°13.688 2°55.905 359.8   75.2 7.2
2001-11-05 07:42:33 51°13.688 2°55.905 359.8   359 7.4
2001-11-05 07:42:38 51°13.688 2°55.905     351.2 7.4
2001-11-05 07:42:43 51°13.688 2°55.905     305.8 7.4
2001-11-05 07:42:48 51°13.688 2°55.905     278.6 7.4
2001-11-05 07:42:53 51°13.688 2°55.905     308.9 7.4
2001-11-05 07:42:58 51°13.688 2°55.905     325.1 7.4
2001-11-05 07:43:03 51°13.688 2°55.905     81.9 6.8
2001-11-05 07:43:08 51°13.689 2°55.905     88.3 7.4
2001-11-05 07:43:13 51°13.689 2°55.905     71.5 7.4
2001-11-05 07:43:18 51°13.689 2°55.905 359.8   65.5 7.4
2001-11-05 07:43:22 51°13.689 2°55.905 359.8   41.9 7.4
2001-11-05 07:43:28 51°13.689 2°55.905 359.7   340.4 7.4
2001-11-05 07:43:33 51°13.689 2°55.905 359.7   325.5 7.4
2001-11-05 07:43:38 51°13.689 2°55.905 359.8   160.1 7.4
2001-11-05 07:43:43 51°13.689 2°55.905 359.8   298.8 7.4
2001-11-05 07:43:48 51°13.689 2°55.905 359.8   314.2 7.4
2001-11-05 07:43:53 51°13.689 2°55.905 359.8   330.4 7.4
2001-11-05 07:43:58 51°13.689 2°55.905 359.8   327.1 7.4
2001-11-05 07:44:03 51°13.689 2°55.905 359.8   161.4 7.4
2001-11-05 07:44:08 51°13.689 2°55.905 359.8   156.6 7.4
2001-11-05 07:44:13 51°13.689 2°55.905     153.4 7.4
2001-11-05 07:44:18 51°13.689 2°55.905 359.8   308.5 7.4
2001-11-05 07:44:22 51°13.689 2°55.905 359.8   350.7 7.3
2001-11-05 07:44:28 51°13.689 2°55.905 359.8   65 7.4
2001-11-05 07:44:33 51°13.689 2°55.905 359.8   2.2 7.3
2001-11-05 07:44:38 51°13.689 2°55.905 359.8   334.8 7.3
2001-11-05 07:44:43 51°13.689 2°55.905 359.8   309.7 7.4
2001-11-05 07:44:48 51°13.689 2°55.905 359.8   305 7.4
2001-11-05 07:44:53 51°13.689 2°55.905 359.8   102.2 7.4
2001-11-05 07:44:58 51°13.689 2°55.905 359.8   112.7 7.3
2001-11-05 07:45:03 51°13.689 2°55.905 359.8   129.5 7.3
2001-11-05 07:45:08 51°13.689 2°55.905 359.7   134.3 7.3
2001-11-05 07:45:13 51°13.689 2°55.905 359.8   180 7.3
2001-11-05 07:45:18 51°13.689 2°55.905 359.8   213.9 7.4
2001-11-05 07:45:23 51°13.689 2°55.905 359.7   112.9 7.3
2001-11-05 07:45:28 51°13.689 2°55.905 359.7   120.7 7.3
2001-11-05 07:45:33 51°13.689 2°55.905 359.8   206.9 7.3
2001-11-05 07:45:38 51°13.689 2°55.905 359.7   147 7.3
2001-11-05 07:45:43 51°13.689 2°55.905 359.7   339.4 7.3
2001-11-05 07:45:48 51°13.689 2°55.905 359.8   77.7 7.3
2001-11-05 07:45:53 51°13.689 2°55.905 359.7   80.2 7.3
2001-11-05 07:45:58 51°13.689 2°55.905 359.7   100.5 7.3
2001-11-05 07:46:03 51°13.689 2°55.905 359.7   72.8 7.3
2001-11-05 07:46:08 51°13.689 2°55.905 359.7   31.7 7.4
2001-11-05 07:46:13 51°13.689 2°55.905 359.8   32.9 7.3
2001-11-05 07:46:18 51°13.689 2°55.905 359.8   107.4 7.3
2001-11-05 07:46:23 51°13.689 2°55.905 359.8   159.5 7.3
2001-11-05 07:46:28 51°13.689 2°55.905 359.8   160 7.4
2001-11-05 07:46:33 51°13.689 2°55.905 359.8   219 7.4
2001-11-05 07:46:38 51°13.689 2°55.905     242.6 7.4
2001-11-05 07:46:43 51°13.689 2°55.905     222.2 7.4
2001-11-05 07:46:48 51°13.689 2°55.905     173.9 7.4
2001-11-05 07:46:53 51°13.689 2°55.905 0.2   137.8 7.4
2001-11-05 07:46:58 51°13.689 2°55.905 0.2   130.5 7.4
2001-11-05 07:47:03 51°13.689 2°55.905     106 7.4
2001-11-05 07:47:08 51°13.689 2°55.905     181.6 7.3
2001-11-05 07:47:13 51°13.689 2°55.905 0.2   227.9 7.4
2001-11-05 07:47:18 51°13.689 2°55.905 0.2   329.8 7.4
2001-11-05 07:47:23 51°13.689 2°55.905     333.2 7.4
2001-11-05 07:47:28 51°13.689 2°55.905 0.2   339.3 7.4
2001-11-05 07:47:33 51°13.689 2°55.905 0.2   11.2 7.2
2001-11-05 07:47:38 51°13.689 2°55.905     128.6 7.2
2001-11-05 07:47:43 51°13.689 2°55.905 0.2   133.8 7.2
2001-11-05 07:47:48 51°13.689 2°55.905     126.8 7.3
2001-11-05 07:47:53 51°13.689 2°55.905     32.1 7.3
2001-11-05 07:47:58 51°13.689 2°55.905     45.3 7.2
2001-11-05 07:48:03 51°13.689 2°55.905     66.9 7.1
2001-11-05 07:48:08 51°13.689 2°55.905     46.5 7.3
2001-11-05 07:48:13 51°13.689 2°55.905     98.7 7.3
2001-11-05 07:48:18 51°13.689 2°55.905     122.8 7.3
2001-11-05 07:48:23 51°13.689 2°55.905 359.8   57.4 7.3
2001-11-05 07:48:28 51°13.689 2°55.905     23.7 7.1
2001-11-05 07:48:33 51°13.689 2°55.905 359.8   102.2 7
2001-11-05 07:48:38 51°13.689 2°55.905 359.8   36.7 7
2001-11-05 07:48:43 51°13.689 2°55.905 359.8   336.5 7.3
2001-11-05 07:48:48 51°13.689 2°55.906 359.8   352.2 7.3
2001-11-05 07:48:53 51°13.689 2°55.906 359.7   70 7.3
2001-11-05 07:48:58 51°13.689 2°55.905 359.7   109.3 7.3
2001-11-05 07:49:03 51°13.689 2°55.905 359.7   11 7.3
2001-11-05 07:49:08 51°13.689 2°55.905 359.8   273.7 7.1
2001-11-05 07:49:13 51°13.689 2°55.905 359.8   17.4 7.3
2001-11-05 07:49:18 51°13.689 2°55.905 359.8   355.3 7.3
2001-11-05 07:49:23 51°13.689 2°55.905 359.8   94.2 7.1
2001-11-05 07:49:28 51°13.689 2°55.905 359.8   105.5 7.3
2001-11-05 07:49:33 51°13.689 2°55.905 359.8   314.2 7.3
2001-11-05 07:49:38 51°13.689 2°55.905 359.8   352.8 7.3
2001-11-05 07:49:43 51°13.689 2°55.905 359.8   118.3 7.3
2001-11-05 07:49:48 51°13.689 2°55.905 359.8   121.8 7.1
2001-11-05 07:49:53 51°13.689 2°55.905 359.7   344.2 6.9
2001-11-05 07:49:58 51°13.689 2°55.905 359.7   164.5 7.3
2001-11-05 07:50:03 51°13.689 2°55.905 359.7   167 7.3
2001-11-05 07:50:08 51°13.689 2°55.905 359.7   150.2 7.3
2001-11-05 07:50:13 51°13.689 2°55.905 359.7   359.6 7.2
2001-11-05 07:50:18 51°13.689 2°55.905 359.8   343.1 7.2
2001-11-05 07:50:22 51°13.689 2°55.905 359.7   317.1 7.2
2001-11-05 07:50:28 51°13.689 2°55.905 359.7   315.7 7.2
2001-11-05 07:50:33 51°13.689 2°55.905 359.8   270.9 7.2
2001-11-05 07:50:38 51°13.689 2°55.905 359.8   305.3 7.3
2001-11-05 07:50:43 51°13.689 2°55.905 359.8   163.7 7.2
2001-11-05 07:50:48 51°13.689 2°55.905 359.8   146.6 7.3
2001-11-05 07:50:53 51°13.689 2°55.905 359.8   141.3 7.3
2001-11-05 07:50:58 51°13.689 2°55.905 359.8   134.6 7.3
2001-11-05 07:51:02 51°13.689 2°55.905 359.8   114.2 6.7
2001-11-05 07:51:08 51°13.689 2°55.905 359.8   322.2 6.8
2001-11-05 07:51:13 51°13.689 2°55.905 359.8   324.9 6.9
2001-11-05 07:51:18 51°13.689 2°55.905     329.3 6.9
2001-11-05 07:51:23 51°13.689 2°55.905 359.8   332.2 7.2
2001-11-05 07:51:28 51°13.689 2°55.905 359.8   328.7 7
2001-11-05 07:51:33 51°13.689 2°55.905 359.8   334.7 7.1
2001-11-05 07:51:38 51°13.689 2°55.905 359.8   352.7 7.3
2001-11-05 07:51:43 51°13.689 2°55.905 359.8   46.6 7.3
2001-11-05 07:51:48 51°13.689 2°55.905 359.8   135.1 7.3
2001-11-05 07:51:53 51°13.689 2°55.905 359.8   117.6 7.3
2001-11-05 07:51:58 51°13.689 2°55.905 359.8   147.2 7.3
2001-11-05 07:52:02 51°13.689 2°55.905 359.8   138 7.3
2001-11-05 07:52:08 51°13.689 2°55.905 359.8   132.6 7.3
2001-11-05 07:52:13 51°13.689 2°55.905 359.8   158.1 7.3
2001-11-05 07:52:18 51°13.689 2°55.905 359.8   156.2 7.1
2001-11-05 07:52:23 51°13.689 2°55.905 359.8   105.5 7.2
2001-11-05 07:52:28 51°13.689 2°55.905 359.8   35.8 7.3
2001-11-05 07:52:33 51°13.689 2°55.905 359.8   337.7 7.3
2001-11-05 07:52:38 51°13.689 2°55.905     329.6 7.3
2001-11-05 07:52:43 51°13.689 2°55.905     310.6 7.3
2001-11-05 07:52:48 51°13.689 2°55.905     326.7 7.3
2001-11-05 07:52:53 51°13.689 2°55.905     63.3 7.1
2001-11-05 07:52:58 51°13.689 2°55.905     1.8 7.1
2001-11-05 07:53:03 51°13.689 2°55.905     350.6 7.1
2001-11-05 07:53:08 51°13.689 2°55.905     319.2 7.1
2001-11-05 07:53:13 51°13.689 2°55.905     153.6 7.3
2001-11-05 07:53:18 51°13.689 2°55.905     171.7 7.3
2001-11-05 07:53:23 51°13.689 2°55.905     123.6 6.8
2001-11-05 07:53:28 51°13.689 2°55.905     115.2 6.8
2001-11-05 07:53:33 51°13.689 2°55.905 359.8   129 6.7
2001-11-05 07:53:38 51°13.689 2°55.905 359.8   101.1 6.7
2001-11-05 07:53:43 51°13.689 2°55.905 359.8   101.1 6.7
2001-11-05 07:53:48 51°13.689 2°55.905 359.8   76.6 6.7
2001-11-05 07:53:53 51°13.689 2°55.905 359.7   20.8 7.3
2001-11-05 07:53:58 51°13.689 2°55.905 359.7   318.3 7.3
2001-11-05 07:54:03 51°13.689 2°55.905 359.7   274.4 6.8
2001-11-05 07:54:08 51°13.689 2°55.906 359.7   68.4 6.8
2001-11-05 07:54:13 51°13.688 2°55.906 359.7   60.1 6.8
2001-11-05 07:54:18 51°13.688 2°55.906 359.5   97 6.8
2001-11-05 07:54:23 51°13.688 2°55.906 359.5   124.4 7.3
2001-11-05 07:54:28 51°13.688 2°55.906 359.5   117.3 7.3
2001-11-05 07:54:33 51°13.688 2°55.906 359.7   122.6 7.3
2001-11-05 07:54:38 51°13.688 2°55.906 359.7   90.9 7.3
2001-11-05 07:54:44 51°13.688 2°55.906 359.5   311.3 7.3
2001-11-05 07:54:48 51°13.688 2°55.906 359.5   312.2 7.3
2001-11-05 07:54:53 51°13.688 2°55.906 359.5   126.9 7.3
2001-11-05 07:54:58 51°13.688 2°55.906 359.7   139.4 7.3
2001-11-05 07:55:02 51°13.689 2°55.906 359.7   104.8 7.3
2001-11-05 07:55:08 51°13.689 2°55.906 359.5   37.8 7.3
2001-11-05 07:55:13 51°13.689 2°55.906 359.5   357 7.3
2001-11-05 07:55:18 51°13.689 2°55.906 359.7   180.9 7.3
2001-11-05 07:55:23 51°13.689 2°55.906 359.8   201.4 7.3
2001-11-05 07:55:28 51°13.688 2°55.906 359.8   206.9 7.3
2001-11-05 07:55:33 51°13.688 2°55.906     192.6 7.3
2001-11-05 07:55:38 51°13.688 2°55.906     170.9 7.3
2001-11-05 07:55:44 51°13.688 2°55.906     118 7.3
2001-11-05 07:55:48 51°13.688 2°55.906     127.3 7.3
2001-11-05 07:55:53 51°13.688 2°55.906 359.8   54.5 7.3
2001-11-05 07:55:58 51°13.688 2°55.906     356.5 7.3
2001-11-05 07:56:03 51°13.688 2°55.906     38.1 7.3
2001-11-05 07:56:08 51°13.688 2°55.906 359.8   6.4 7.3
2001-11-05 07:56:13 51°13.688 2°55.906 359.8   21.2 7.3
2001-11-05 07:56:18 51°13.688 2°55.906 359.8   64.2 7.3
2001-11-05 07:56:22 51°13.688 2°55.906     95.4 7.3
2001-11-05 07:56:28 51°13.688 2°55.906     124.2 6.9
2001-11-05 07:56:33 51°13.688 2°55.906 359.8   156.3 7.3
2001-11-05 07:56:38 51°13.688 2°55.906     156.8 7.3
2001-11-05 07:56:43 51°13.688 2°55.906 359.8   342.9 7.2
2001-11-05 07:56:48 51°13.688 2°55.906 359.8   326.1 7.3
2001-11-05 07:56:53 51°13.688 2°55.906 359.8   297.5 7.2
2001-11-05 07:56:58 51°13.688 2°55.907     220 7.3
2001-11-05 07:57:03 51°13.688 2°55.907 359.8   145.6 7.3
2001-11-05 07:57:08 51°13.688 2°55.907 359.8   135.2 7.3
2001-11-05 07:57:13 51°13.688 2°55.907     114.9 7.3
2001-11-05 07:57:18 51°13.688 2°55.907 359.8   119.5 7.2
2001-11-05 07:57:22 51°13.688 2°55.907 359.8   123.5 7.3
2001-11-05 07:57:28 51°13.688 2°55.907 359.8   119.3 7.3
2001-11-05 07:57:33 51°13.688 2°55.907 359.8   197 7.2
2001-11-05 07:57:38 51°13.688 2°55.907     192.2 7.2
2001-11-05 07:57:43 51°13.688 2°55.907     213.4 7.3
2001-11-05 07:57:48 51°13.688 2°55.907     147.5 7.3
2001-11-05 07:57:53 51°13.688 2°55.907     115.8 7.3
2001-11-05 07:57:58 51°13.688 2°55.907 359.8   125 7.3
2001-11-05 07:58:03 51°13.688 2°55.907     83.6 7.2
2001-11-05 07:58:08 51°13.688 2°55.907 359.8   18.9 7.2
2001-11-05 07:58:13 51°13.688 2°55.907 359.8   349.3 7.2
2001-11-05 07:58:18 51°13.688 2°55.907 359.8   339.3 7.2
2001-11-05 07:58:22 51°13.688 2°55.907 359.8   339.9 7.2
2001-11-05 07:58:28 51°13.688 2°55.907 359.8   292.9 7.2
2001-11-05 07:58:33 51°13.688 2°55.907 359.8   324.7 7.2
2001-11-05 07:58:38 51°13.688 2°55.907 359.8   310.9 7.2
2001-11-05 07:58:43 51°13.688 2°55.907 359.8   290.4 7.2
2001-11-05 07:58:48 51°13.688 2°55.907 359.8   324.7 7.2
2001-11-05 07:58:53 51°13.688 2°55.907 359.8   345.1 7.2
2001-11-05 07:58:58 51°13.688 2°55.906 359.8   351.4 7.2
2001-11-05 07:59:03 51°13.688 2°55.906 359.8   337.9 7.2
2001-11-05 07:59:08 51°13.688 2°55.906 359.8   334.7 7.2
2001-11-05 07:59:13 51°13.688 2°55.906 359.8   335.1 7.2
2001-11-05 07:59:18 51°13.688 2°55.906 359.7   7.7 7.2
2001-11-05 07:59:24 51°13.688 2°55.906 359.7   12.1 7.2
2001-11-05 07:59:28 51°13.688 2°55.906 359.7   152 7.2
2001-11-05 07:59:33 51°13.688 2°55.906 359.7   251.5 7.2
2001-11-05 07:59:38 51°13.688 2°55.906 359.7   312.8 7.2
2001-11-05 07:59:43 51°13.688 2°55.906 359.7   96 7.2
2001-11-05 07:59:48 51°13.688 2°55.906 359.7   104.7 7.2
2001-11-05 07:59:53 51°13.688 2°55.906 359.7   136.5 7.2
2001-11-05 07:59:58 51°13.688 2°55.906 359.8   192.9 7.2
2001-11-05 08:00:04 51°13.688 2°55.906 359.7   156.9 -999
2001-11-05 08:00:08 51°13.688 2°55.906 359.7   139.7 6.6
2001-11-05 08:00:13 51°13.688 2°55.906 359.7   150.4 6.6
2001-11-05 08:00:18 51°13.688 2°55.906 359.8   182.8 6.6
2001-11-05 08:00:23 51°13.688 2°55.906 359.8   299.8 6.6
2001-11-05 08:00:28 51°13.688 2°55.906 359.8   317.8 6.6
2001-11-05 08:00:33 51°13.688 2°55.906 359.8   319.3 6.7
2001-11-05 08:00:38 51°13.688 2°55.906     249.3 6.7
2001-11-05 08:00:43 51°13.688 2°55.907     101.2 6.8
2001-11-05 08:00:48 51°13.688 2°55.906     133.7 7.2
2001-11-05 08:00:53 51°13.688 2°55.906 359.8   307.4 7.3
2001-11-05 08:00:58 51°13.688 2°55.906     309.6 7.3
2001-11-05 08:01:03 51°13.688 2°55.906     310.9 7.3
2001-11-05 08:01:08 51°13.688 2°55.906     320.3 7.2
2001-11-05 08:01:13 51°13.688 2°55.906     346.7 7.2
2001-11-05 08:01:18 51°13.688 2°55.906     64.7 7.2
2001-11-05 08:01:23 51°13.688 2°55.906     95.4 7.2
2001-11-05 08:01:28 51°13.688 2°55.906     329.7 7.2
2001-11-05 08:01:33 51°13.688 2°55.906     318.1 7.2
2001-11-05 08:01:38 51°13.688 2°55.906     148.8 7.2
2001-11-05 08:01:43 51°13.688 2°55.906     84.1 7.2
2001-11-05 08:01:48 51°13.688 2°55.906     44.4 7.2
2001-11-05 08:01:53 51°13.688 2°55.906     0.6 7.2
2001-11-05 08:01:58 51°13.688 2°55.906     22.2 7.2
2001-11-05 08:02:03 51°13.688 2°55.907     118.6 7.2
2001-11-05 08:02:08 51°13.688 2°55.907     116.8 7.2
2001-11-05 08:02:13 51°13.688 2°55.906 359.8   26.6 7.2
2001-11-05 08:02:18 51°13.688 2°55.907 359.8   3.8 7.2
2001-11-05 08:02:23 51°13.688 2°55.907     23.7 7.2
2001-11-05 08:02:28 51°13.688 2°55.906 359.8   346.2 7.2
2001-11-05 08:02:33 51°13.689 2°55.906 359.8   338 7.2
2001-11-05 08:02:38 51°13.689 2°55.906 359.8   308.3 7.2
2001-11-05 08:02:43 51°13.689 2°55.906 359.8   61.9 7.2
2001-11-05 08:02:48 51°13.689 2°55.906 359.8   23.2 7.2
2001-11-05 08:02:53 51°13.689 2°55.906 359.8   0.3 7.2
2001-11-05 08:02:58 51°13.689 2°55.906 359.8   98.8 7.2
2001-11-05 08:03:03 51°13.689 2°55.906 359.8   133.5 7.2
2001-11-05 08:03:08 51°13.689 2°55.906 359.8   148.4 7.3
2001-11-05 08:03:13 51°13.689 2°55.906 359.8   178.2 7.2
2001-11-05 08:03:18 51°13.689 2°55.906 359.8   54.7 7.2
2001-11-05 08:03:23 51°13.689 2°55.906 359.7   77.7 7.2
2001-11-05 08:03:28 51°13.689 2°55.906 359.8   231.5 7.2
2001-11-05 08:03:33 51°13.689 2°55.906 359.8   222.9 7.2
2001-11-05 08:03:38 51°13.689 2°55.906 359.8   138.9 7.2
2001-11-05 08:03:43 51°13.689 2°55.906 359.8   100 7.2
2001-11-05 08:03:48 51°13.689 2°55.906 359.7   109.6 7.2
2001-11-05 08:03:53 51°13.689 2°55.906 359.7   138.4 7.2
2001-11-05 08:03:58 51°13.689 2°55.906 359.8   206.3 7.2
2001-11-05 08:04:04 51°13.689 2°55.906 359.8   226.3 7.2
2001-11-05 08:04:08 51°13.689 2°55.905 359.8   99.7 7.2
2001-11-05 08:04:13 51°13.689 2°55.905 359.8   260.5 7.2
2001-11-05 08:04:18 51°13.689 2°55.905 359.8   282.1 7.2
2001-11-05 08:04:22 51°13.689 2°55.905 359.8   53.2 7.2
2001-11-05 08:04:28 51°13.689 2°55.905 359.8   7.8 7.2
2001-11-05 08:04:33 51°13.689 2°55.905 359.8   258.6 7.2
2001-11-05 08:04:38 51°13.689 2°55.905 359.8   277.3 7.2
2001-11-05 08:04:43 51°13.689 2°55.905 359.8   330 7.2
2001-11-05 08:04:48 51°13.689 2°55.906 359.8   80.4 7.2
2001-11-05 08:04:53 51°13.689 2°55.905 359.8   285.8 7.2
2001-11-05 08:04:58 51°13.689 2°55.905 359.8   275.1 7.2
2001-11-05 08:05:03 51°13.689 2°55.905     259.5 7.2
2001-11-05 08:05:08 51°13.689 2°55.906 359.8   261.3 6.7
2001-11-05 08:05:13 51°13.689 2°55.905 359.8   279.7 6.7
2001-11-05 08:05:18 51°13.689 2°55.906     275.3 7.2
2001-11-05 08:05:23 51°13.689 2°55.905     271.4 7.2
2001-11-05 08:05:28 51°13.689 2°55.905 359.8   265.9 7.1
2001-11-05 08:05:33 51°13.689 2°55.905 359.8   294.1 7.2
2001-11-05 08:05:38 51°13.689 2°55.906 359.8   174.3 7.2
2001-11-05 08:05:43 51°13.689 2°55.905     116.9 7.2
2001-11-05 08:05:49 51°13.689 2°55.906 359.8   29.9 7.2
2001-11-05 08:05:53 51°13.689 2°55.906 359.8   6.8 7.2
2001-11-05 08:05:58 51°13.689 2°55.906 359.8   211.2 7.2
2001-11-05 08:06:03 51°13.689 2°55.905 359.8   240.6 7.2
2001-11-05 08:06:08 51°13.689 2°55.905 359.8   274.9 7.1
2001-11-05 08:06:13 51°13.689 2°55.905 359.8   263 7.1
2001-11-05 08:06:18 51°13.689 2°55.905 359.8   14.4 7.2
2001-11-05 08:06:23 51°13.689 2°55.905 359.8   317.4 7.2
2001-11-05 08:06:28 51°13.689 2°55.905 359.8   102.4 7.2
2001-11-05 08:06:33 51°13.689 2°55.905     114.6 7.2
2001-11-05 08:06:38 51°13.689 2°55.905 359.8   101.8 7.2
2001-11-05 08:06:43 51°13.689 2°55.905 359.8   170.7 7.2
2001-11-05 08:06:48 51°13.689 2°55.905     121 7.2
2001-11-05 08:06:53 51°13.689 2°55.905     292.9 7.2
2001-11-05 08:06:58 51°13.689 2°55.905     243.8 7.1
2001-11-05 08:07:03 51°13.689 2°55.905 359.8   246.2 7.2
2001-11-05 08:07:08 51°13.689 2°55.905 359.8   236.7 7.1
2001-11-05 08:07:13 51°13.689 2°55.905     286.2 7.2
2001-11-05 08:07:18 51°13.689 2°55.905 359.8   276.9 7.2
2001-11-05 08:07:22 51°13.688 2°55.905     197.5 7.2
2001-11-05 08:07:28 51°13.689 2°55.905     218.3 7.2
2001-11-05 08:07:33 51°13.689 2°55.905     108.5 7.2
2001-11-05 08:07:38 51°13.689 2°55.905     89.3 7.2
2001-11-05 08:07:43 51°13.689 2°55.905     51.3 7.2
2001-11-05 08:07:48 51°13.689 2°55.905 359.8   125.3 7.1
2001-11-05 08:07:53 51°13.689 2°55.905     103.6 7.2
2001-11-05 08:07:58 51°13.689 2°55.905 359.8   326.9 7.2
2001-11-05 08:08:03 51°13.689 2°55.905 359.8   346.9 7.2
2001-11-05 08:08:08 51°13.689 2°55.905 359.8   86.7 7.2
2001-11-05 08:08:13 51°13.688 2°55.905 359.8   99 7.2
2001-11-05 08:08:18 51°13.688 2°55.905 359.8   173.6 7.1
2001-11-05 08:08:23 51°13.688 2°55.905 359.8   89.8 7.1
2001-11-05 08:08:28 51°13.688 2°55.905 359.7   83.5 7
2001-11-05 08:08:33 51°13.688 2°55.905 359.7   99 7.2
2001-11-05 08:08:38 51°13.688 2°55.905 359.7   164.8 7.1
2001-11-05 08:08:43 51°13.688 2°55.905 359.8   282.4 7
2001-11-05 08:08:48 51°13.688 2°55.905 359.7   275.3 7.2
2001-11-05 08:08:53 51°13.687 2°55.905 359.7   277.5 7.2
2001-11-05 08:08:58 51°13.687 2°55.905 359.7   261.3 7.2
2001-11-05 08:09:02 51°13.687 2°55.905 359.7   260.1 7.2
2001-11-05 08:09:08 51°13.687 2°55.905 359.7   202.8 7.1
2001-11-05 08:09:13 51°13.687 2°55.906 359.7   102.5 7.2
2001-11-05 08:09:18 51°13.687 2°55.905 359.8 0.1 108.8 6.9
2001-11-05 08:09:23 51°13.687 2°55.905 359.8   149.7 6.7
2001-11-05 08:09:28 51°13.687 2°55.905     205.4 7.1
2001-11-05 08:09:33 51°13.687 2°55.905 359.8   284.1 7.1
2001-11-05 08:09:38 51°13.687 2°55.905 359.8   80.3 7.1
2001-11-05 08:09:42 51°13.687 2°55.905 359.8   228.5 7.2
2001-11-05 08:09:48 51°13.687 2°55.905 359.8   136.4 7.2
2001-11-05 08:09:53 51°13.688 2°55.905 359.8   103.1 7.2
2001-11-05 08:09:58 51°13.688 2°55.905 359.8   87.6 7.2
2001-11-05 08:10:03 51°13.688 2°55.905 359.7   49.4 7.2
2001-11-05 08:10:08 51°13.688 2°55.905 359.7   20.3 7.2
2001-11-05 08:10:13 51°13.688 2°55.905 359.8   244.8 7.2
2001-11-05 08:10:18 51°13.688 2°55.905 359.8   242.3 7
2001-11-05 08:10:22 51°13.688 2°55.905 359.7   219.3 7.2
2001-11-05 08:10:28 51°13.688 2°55.905 359.8   230.3 7.1
2001-11-05 08:10:33 51°13.688 2°55.905 359.8   164.6 7
2001-11-05 08:10:38 51°13.688 2°55.905 359.8   93.3 7.1
2001-11-05 08:10:43 51°13.688 2°55.905 359.8   157.5 7.1
2001-11-05 08:10:48 51°13.688 2°55.905     155.5 7
2001-11-05 08:10:53 51°13.688 2°55.905     133.9 7.1
2001-11-05 08:10:58 51°13.688 2°55.905     340.1 7.2
2001-11-05 08:11:03 51°13.688 2°55.905 359.8   328.2 7.1
2001-11-05 08:11:08 51°13.688 2°55.905     11 6.9
2001-11-05 08:11:13 51°13.688 2°55.905     127.8 7
2001-11-05 08:11:18 51°13.688 2°55.905     118.2 7
2001-11-05 08:11:23 51°13.688 2°55.905 359.8   94.8 7.1
2001-11-05 08:11:28 51°13.688 2°55.905 359.8   296.7 7.1
2001-11-05 08:11:33 51°13.688 2°55.905 359.8   207.4 7.1
2001-11-05 08:11:38 51°13.688 2°55.905     232.2 7.1
2001-11-05 08:11:43 51°13.688 2°55.905 359.8   277.7 7.1
2001-11-05 08:11:48 51°13.688 2°55.905 359.8   284.3 7.2
2001-11-05 08:11:53 51°13.688 2°55.905 359.8   166.3 7.1
2001-11-05 08:11:58 51°13.688 2°55.905 359.8   122.5 7.1
2001-11-05 08:12:03 51°13.688 2°55.905 359.8   60.5 7.1
2001-11-05 08:12:08 51°13.688 2°55.905 359.7   42.2 7.1
2001-11-05 08:12:13 51°13.688 2°55.905 359.7   215.4 7
2001-11-05 08:12:18 51°13.688 2°55.905 359.8   235.4 7.1
2001-11-05 08:12:22 51°13.688 2°55.905 359.8   120.5 7.1
2001-11-05 08:12:29 51°13.688 2°55.905 359.7   164.9 7.1
2001-11-05 08:12:33 51°13.688 2°55.905 359.8   192.3 7.1
2001-11-05 08:12:38 51°13.688 2°55.905 359.8   234.2 7
2001-11-05 08:12:43 51°13.688 2°55.905 359.7   239.7 7
2001-11-05 08:12:48 51°13.688 2°55.905 359.7   230.9 7
2001-11-05 08:12:53 51°13.688 2°55.905 359.8   73.5 7
2001-11-05 08:12:58 51°13.688 2°55.905 359.7   57.6 6.9
2001-11-05 08:13:03 51°13.688 2°55.905 359.7   93.8 6.9
2001-11-05 08:13:08 51°13.688 2°55.905 359.7   117.6 7.1
2001-11-05 08:13:13 51°13.688 2°55.905 359.8   158 7.2
2001-11-05 08:13:18 51°13.688 2°55.905 359.8   308.8 7.1
2001-11-05 08:13:23 51°13.688 2°55.905 359.7   299.4 7
2001-11-05 08:13:28 51°13.688 2°55.905 359.7   274.7 7
2001-11-05 08:13:33 51°13.688 2°55.905 359.8   249.3 7
2001-11-05 08:13:38 51°13.688 2°55.905 359.8   253 7.1
2001-11-05 08:13:42 51°13.688 2°55.905 359.8   259.5 7.2
2001-11-05 08:13:48 51°13.688 2°55.905 359.8   261.2 7.1
2001-11-05 08:14:40 51°13.688 2°55.905     135.6 7.1
2001-11-05 08:14:45 51°13.688 2°55.905 359.8   77.1 7.1
2001-11-05 08:14:50 51°13.688 2°55.905 359.7   71.5 7.1
2001-11-05 08:14:55 51°13.688 2°55.905 359.7   207.8 7.1
2001-11-05 08:15:00 51°13.688 2°55.905 359.8   270.3 7.1
2001-11-05 08:15:05 51°13.688 2°55.905 359.7   247.8 7.1
2001-11-05 08:15:10 51°13.688 2°55.905 359.7   219 7.1
2001-11-05 08:15:15 51°13.688 2°55.905 359.8   113 7.1
2001-11-05 08:15:20 51°13.688 2°55.905 359.7   96.6 7.1
2001-11-05 08:15:25 51°13.688 2°55.905 359.7   104 7.1
2001-11-05 08:15:30 51°13.688 2°55.905 359.7   157.5 7.2
2001-11-05 08:15:35 51°13.688 2°55.905 359.7   129.6 7.2
2001-11-05 08:15:40 51°13.688 2°55.905 359.7   86.8 7.1
2001-11-05 08:15:45 51°13.688 2°55.905 359.7   117.9 7.1
2001-11-05 08:15:50 51°13.688 2°55.905 359.7   7.5 7.1
2001-11-05 08:15:55 51°13.688 2°55.905 359.7   263.3 7.1
2001-11-05 08:16:00 51°13.688 2°55.905 359.7   251.5 7
2001-11-05 08:16:05 51°13.688 2°55.905 359.7   96.5 7.1
2001-11-05 08:16:10 51°13.688 2°55.905 359.7   92.1 7.1
2001-11-05 08:16:15 51°13.688 2°55.905 359.7   81.1 7
2001-11-05 08:16:20 51°13.688 2°55.905 359.7   101.5 7.1
2001-11-05 08:16:25 51°13.688 2°55.905 359.7   96.1 7.1
2001-11-05 08:16:30 51°13.688 2°55.905 359.7   133.4 7.1
2001-11-05 08:16:35 51°13.688 2°55.905 359.7   203.5 7.1
2001-11-05 08:16:40 51°13.688 2°55.905 359.7   241.9 7.1
2001-11-05 08:16:45 51°13.688 2°55.905 359.7   160 7.1
2001-11-05 08:16:50 51°13.688 2°55.905 359.7   181 7.1
2001-11-05 08:16:55 51°13.688 2°55.905 359.8   191.8 7.1
2001-11-05 08:17:00 51°13.688 2°55.905 359.8   184 7.1
2001-11-05 08:17:05 51°13.688 2°55.905 359.8   229.5 7.1
2001-11-05 08:17:10 51°13.688 2°55.905 359.8   261.8 -999
2001-11-05 08:17:15 51°13.688 2°55.905 359.7   42.3 7.1
2001-11-05 08:17:20 51°13.688 2°55.905 359.7   86.9 7.2
2001-11-05 08:17:25 51°13.688 2°55.905 359.8   107.1 7.1
2001-11-05 08:17:30 51°13.688 2°55.905 359.8   93.1 7.2
2001-11-05 08:17:36 51°13.688 2°55.905 359.7   87.5 6.5
2001-11-05 08:17:40 51°13.688 2°55.905 359.7   266.6 6.9
2001-11-05 08:17:45 51°13.688 2°55.905 359.8   275.3 6.8
2001-11-05 08:17:50 51°13.688 2°55.905 359.8   298.1 6.9
2001-11-05 08:17:55 51°13.688 2°55.905 359.7   329.5 7
2001-11-05 08:18:00 51°13.688 2°55.905 359.7   342.4 7.1
2001-11-05 08:18:05 51°13.688 2°55.905 359.7   119.5 7
2001-11-05 08:18:10 51°13.688 2°55.905 359.8   108.4 7.1
2001-11-05 08:18:15 51°13.688 2°55.905 359.7   99.2 7.1
2001-11-05 08:18:20 51°13.688 2°55.905 359.7   238 7.1
2001-11-05 08:18:25 51°13.688 2°55.905 359.8   179.4 7.1
2001-11-05 08:18:30 51°13.687 2°55.905 359.7   123.5 7.1
2001-11-05 08:18:35 51°13.687 2°55.905 359.7   114.8 7.1
2001-11-05 08:18:40 51°13.687 2°55.905 359.7   212.7 7.1
2001-11-05 08:18:45 51°13.687 2°55.905 359.8   202.6 6.9
2001-11-05 08:18:50 51°13.687 2°55.905 359.8   224.8 7
2001-11-05 08:18:55 51°13.687 2°55.906 359.8   188.5 7.1
2001-11-05 08:19:00 51°13.687 2°55.905 359.7   165.2 7
2001-11-05 08:19:05 51°13.687 2°55.906 359.8   123.6 7
2001-11-05 08:19:10 51°13.687 2°55.906 359.8   110.4 7
2001-11-05 08:19:15 51°13.687 2°55.906 359.8   98.5 7.1
2001-11-05 08:19:20 51°13.687 2°55.906 359.8   143.2 7.1
2001-11-05 08:19:25 51°13.687 2°55.906 359.8   153.8 7
2001-11-05 08:19:30 51°13.687 2°55.906 359.8   140.1 7.1
2001-11-05 08:19:35 51°13.687 2°55.906     133.1 7.2
2001-11-05 08:19:40 51°13.687 2°55.905     94.6 7.2
2001-11-05 08:19:45 51°13.687 2°55.905     43.3 7.1
2001-11-05 08:19:50 51°13.687 2°55.905 359.8   172.9 7.2
2001-11-05 08:19:55 51°13.687 2°55.905     255.2 7.2
2001-11-05 08:20:00 51°13.687 2°55.905     239.5 7.1
2001-11-05 08:20:05 51°13.687 2°55.906     221.7 7.1
2001-11-05 08:20:10 51°13.687 2°55.906     105.1 7.1
2001-11-05 08:20:15 51°13.687 2°55.906     94.4 7.1
2001-11-05 08:20:20 51°13.687 2°55.906     84.4 7.1
2001-11-05 08:20:25 51°13.688 2°55.906 359.8   97.6 -999
2001-11-05 08:20:30 51°13.688 2°55.906 359.8   86.9 7.1
2001-11-05 08:20:35 51°13.688 2°55.905 359.8   268.8 7
2001-11-05 08:20:40 51°13.688 2°55.905 359.8   264.2 -999
2001-11-05 08:20:45 51°13.688 2°55.905 359.8   264.9 7.1
2001-11-05 08:20:50 51°13.688 2°55.905 359.8   261.8 7.1
2001-11-05 08:20:55 51°13.688 2°55.905 359.8   291.8 7
2001-11-05 08:21:01 51°13.688 2°55.906 359.8   243.5 6.6
2001-11-05 08:21:05 51°13.688 2°55.905 359.8   151.4 7
2001-11-05 08:21:10 51°13.688 2°55.905 359.8   104 7
2001-11-05 08:21:15 51°13.688 2°55.905 359.8   82.5 7.1
2001-11-05 08:21:20 51°13.688 2°55.905 359.7   66.8 7.1
2001-11-05 08:21:25 51°13.688 2°55.906 359.7   69.3 7
2001-11-05 08:21:30 51°13.688 2°55.905 359.7   61.9 7.1
2001-11-05 08:21:35 51°13.688 2°55.905 359.7   121.8 7.1
2001-11-05 08:21:40 51°13.688 2°55.905 359.8   105 7
2001-11-05 08:21:45 51°13.688 2°55.905 359.7   108.3 7.1
2001-11-05 08:21:50 51°13.689 2°55.905 359.7   101.7 7
2001-11-05 08:21:55 51°13.689 2°55.905 359.7   14.5 7.1
2001-11-05 08:22:00 51°13.689 2°55.905 359.7   1.7 7.1
2001-11-05 08:22:05 51°13.689 2°55.905 359.5   293.2 7.1
2001-11-05 08:22:10 51°13.689 2°55.905 359.7   255.5 7
2001-11-05 08:22:15 51°13.689 2°55.905 359.5   253.2 7.1
2001-11-05 08:22:20 51°13.688 2°55.905 359.7   226.7 7
2001-11-05 08:22:25 51°13.688 2°55.905 359.7   229.5 7.1
2001-11-05 08:22:30 51°13.688 2°55.905 359.5   261.1 6.7
2001-11-05 08:22:35 51°13.688 2°55.905 359.5   203.4 7.1
2001-11-05 08:22:40 51°13.688 2°55.905 359.7   107.2 7.1
2001-11-05 08:22:45 51°13.688 2°55.905 359.7   221.5 7.1
2001-11-05 08:22:50 51°13.688 2°55.905 359.7   211 7.1
2001-11-05 08:22:55 51°13.688 2°55.906 359.7   128.5 7.1
2001-11-05 08:23:00 51°13.689 2°55.906 359.8   124.3 7.1
2001-11-05 08:23:05 51°13.689 2°55.906 359.8   130.7 7.1
2001-11-05 08:23:10 51°13.689 2°55.906 359.8   141.2 7.1
2001-11-05 08:23:16 51°13.689 2°55.905     203.2 7.1
2001-11-05 08:23:20 51°13.689 2°55.905     237.4 7
2001-11-05 08:23:25 51°13.689 2°55.905 359.8   204 7.1
2001-11-05 08:23:30 51°13.689 2°55.905     177.1 7.1
2001-11-05 08:23:35 51°13.689 2°55.905     199.5 7.1
2001-11-05 08:23:41 51°13.689 2°55.905     270.5 7.2
2001-11-05 08:23:45 51°13.689 2°55.905     262.1 7
2001-11-05 08:23:50 51°13.689 2°55.905     200.7 7.2
2001-11-05 08:23:55 51°13.689 2°55.905     78.9 7.1
2001-11-05 08:24:01 51°13.689 2°55.905     32 6.9
2001-11-05 08:24:05 51°13.689 2°55.905     70.8 6.8
2001-11-05 08:24:10 51°13.689 2°55.905     76.6 6.8
2001-11-05 08:24:15 51°13.689 2°55.905     260.3 6.8
2001-11-05 08:24:20 51°13.689 2°55.905     271 7
2001-11-05 08:24:25 51°13.689 2°55.905     281.2 7
2001-11-05 08:24:30 51°13.689 2°55.905 359.8   265.2 7
2001-11-05 08:24:35 51°13.689 2°55.905 359.8   247.3 7.1
2001-11-05 08:24:40 51°13.689 2°55.905 359.8   336.4 7.1
2001-11-05 08:24:45 51°13.689 2°55.905 359.7   44.8 7.1
2001-11-05 08:24:50 51°13.689 2°55.905 359.7   71.8 7.2
2001-11-05 08:24:55 51°13.689 2°55.905 359.8   80.6 7.1
2001-11-05 08:25:00 51°13.689 2°55.905 359.7   275.2 6.8
2001-11-05 08:25:05 51°13.689 2°55.905 359.7   288.8 6.7
2001-11-05 08:25:10 51°13.689 2°55.906 359.7   275.9 6.7
2001-11-05 08:25:15 51°13.689 2°55.906 359.7   255.1 6.6
2001-11-05 08:25:20 51°13.689 2°55.906 359.8   212.1 6.7
2001-11-05 08:25:25 51°13.689 2°55.906 359.8   264.3 -999
2001-11-05 08:25:30 51°13.689 2°55.906 359.7   178.5 7.1
2001-11-05 08:25:35 51°13.689 2°55.906 359.8   108 7
2001-11-05 08:25:40 51°13.689 2°55.906 359.7   86.5 7.1
2001-11-05 08:25:45 51°13.689 2°55.906 359.7   116.6 7
2001-11-05 08:25:50 51°13.689 2°55.906 359.8   226.2 7.1
2001-11-05 08:25:55 51°13.689 2°55.906     286.4 7.1
2001-11-05 08:26:00 51°13.689 2°55.906 359.7   19.7 7.1
2001-11-05 08:26:05 51°13.689 2°55.906 359.7   34.6 7.1
2001-11-05 08:26:10 51°13.689 2°55.906 359.8   250.9 7.1
2001-11-05 08:26:15 51°13.689 2°55.906 359.8   260.6 6.6
2001-11-05 08:26:20 51°13.689 2°55.906 359.7   131.7 7.1
2001-11-05 08:26:25 51°13.689 2°55.906 359.8   139 7
2001-11-05 08:26:30 51°13.689 2°55.906 359.8   134.4 7.1
2001-11-05 08:26:35 51°13.689 2°55.906 359.8   285 7
2001-11-05 08:26:40 51°13.689 2°55.905 359.8   279.2 7.1
2001-11-05 08:26:45 51°13.689 2°55.906 359.8   320.4 7.1
2001-11-05 08:26:50 51°13.689 2°55.906 359.8   10.3 7
2001-11-05 08:26:55 51°13.689 2°55.906 359.8   87.6 6.8
2001-11-05 08:27:00 51°13.689 2°55.906 359.8   55.9 7.1
2001-11-05 08:27:05 51°13.689 2°55.906 359.8   75 7.1